<?xml version="1.0" encoding="utf-8"?>
<gpx version="1.1" creator="com.bodunov.galileo/v5.9.2" xmlns:xsi="http://www.w3.org/2001/XMLSchema-instance" xmlns="http://www.topografix.com/GPX/1/1" xmlns:gom="https://gurumaps.app/gpx/v3" xsi:schemaLocation="http://www.topografix.com/GPX/1/1 http://www.topografix.com/GPX/1/1/gpx.xsd https://gurumaps.app/gpx/v3 https://gurumaps.app/gpx/v3/schema.xsd">
 <trk>
  <type>TrackStyle_2196F3C8</type>
  <extensions>
   <gom:time>2026-04-20T17:02:04.504Z</gom:time>
   <line xmlns="http://www.topografix.com/GPX/gpx_style/0/2">
    <color>2196F3</color>
   </line>
  </extensions>
  <trkseg>
   <trkpt lat="59.0559007946" lon="29.9803673406"><ele>105.701</ele><time>2026-04-20T17:02:05.113Z</time><hdop>4.812</hdop><vdop>4.187</vdop><extensions><gom:speed>0.0</gom:speed></extensions></trkpt>
   <trkpt lat="59.0561098812" lon="29.9817046732"><ele>101.322</ele><time>2026-04-20T17:04:01.133Z</time><hdop>3.0</hdop><vdop>2.5</vdop><extensions><gom:speed>0.921</gom:speed></extensions></trkpt>
   <trkpt lat="59.0568119913" lon="29.9820446432"><ele>96.941</ele><time>2026-04-20T17:05:43.111Z</time><hdop>3.0</hdop><vdop>2.5</vdop><extensions><gom:speed>0.993</gom:speed></extensions></trkpt>
   <trkpt lat="59.0575197592" lon="29.9823250179"><ele>97.641</ele><time>2026-04-20T17:07:45.112Z</time><hdop>3.0</hdop><vdop>2.5</vdop><extensions><gom:speed>0.896</gom:speed></extensions></trkpt>
   <trkpt lat="59.0582323887" lon="29.9825859465"><ele>98.439</ele><time>2026-04-20T17:09:35.092Z</time><hdop>3.0</hdop><vdop>2.5</vdop><extensions><gom:speed>0.78</gom:speed></extensions></trkpt>
   <trkpt lat="59.0589138793" lon="29.9830704205"><ele>99.414</ele><time>2026-04-20T17:12:17.113Z</time><hdop>3.0</hdop><vdop>2.5</vdop><extensions><gom:speed>0.922</gom:speed></extensions></trkpt>
   <trkpt lat="59.059633298" lon="29.9832023517"><ele>99.096</ele><time>2026-04-20T17:14:10.114Z</time><hdop>3.0</hdop><vdop>2.5</vdop><extensions><gom:speed>0.946</gom:speed></extensions></trkpt>
   <trkpt lat="59.0603480648" lon="29.983445846"><ele>100.855</ele><time>2026-04-20T17:16:46.087Z</time><hdop>3.125</hdop><vdop>2.5</vdop><extensions><gom:speed>0.794</gom:speed></extensions></trkpt>
   <trkpt lat="59.0610596884" lon="29.9836601712"><ele>96.863</ele><time>2026-04-20T17:18:43.920Z</time><hdop>3.5</hdop><vdop>2.5</vdop><extensions><gom:speed>0.939</gom:speed></extensions></trkpt>
   <trkpt lat="59.0617468787" lon="29.9832360469"><ele>96.477</ele><time>2026-04-20T17:24:23.689Z</time><hdop>3.0</hdop><vdop>2.5</vdop><extensions><gom:speed>0.607</gom:speed></extensions></trkpt>
   <trkpt lat="59.0622235995" lon="29.9821830284"><ele>90.122</ele><time>2026-04-20T17:33:36.809Z</time><hdop>3.0</hdop><vdop>2.5</vdop><extensions><gom:speed>0.841</gom:speed></extensions></trkpt>
   <trkpt lat="59.0627294893" lon="29.9811803852"><ele>96.888</ele><time>2026-04-20T17:36:13.120Z</time><hdop>3.0</hdop><vdop>2.687</vdop><extensions><gom:speed>0.86</gom:speed></extensions></trkpt>
   <trkpt lat="59.0634388916" lon="29.9809356336"><ele>101.186</ele><time>2026-04-20T17:38:22.120Z</time><hdop>3.0</hdop><vdop>2.5</vdop><extensions><gom:speed>0.801</gom:speed></extensions></trkpt>
   <trkpt lat="59.0640794786" lon="29.980283773"><ele>103.728</ele><time>2026-04-20T17:41:04.120Z</time><hdop>3.0</hdop><vdop>2.5</vdop><extensions><gom:speed>0.775</gom:speed></extensions></trkpt>
   <trkpt lat="59.0647167966" lon="29.9796305713"><ele>98.882</ele><time>2026-04-20T17:43:27.263Z</time><hdop>3.0</hdop><vdop>2.5</vdop><extensions><gom:speed>0.633</gom:speed></extensions></trkpt>
   <trkpt lat="59.0653597724" lon="29.9789990787"><ele>100.873</ele><time>2026-04-20T17:46:37.122Z</time><hdop>3.0</hdop><vdop>2.5</vdop><extensions><gom:speed>0.749</gom:speed></extensions></trkpt>
   <trkpt lat="59.0660277682" lon="29.9784814962"><ele>90.109</ele><time>2026-04-20T17:51:51.123Z</time><hdop>3.0</hdop><vdop>2.5</vdop><extensions><gom:speed>0.752</gom:speed></extensions></trkpt>
   <trkpt lat="59.0666324806" lon="29.9777255323"><ele>95.587</ele><time>2026-04-20T17:56:02.878Z</time><hdop>3.0</hdop><vdop>2.5</vdop><extensions><gom:speed>0.582</gom:speed></extensions></trkpt>
   <trkpt lat="59.0672462873" lon="29.9769651261"><ele>89.774</ele><time>2026-04-20T18:05:04.127Z</time><hdop>3.062</hdop><vdop>2.5</vdop><extensions><gom:speed>0.11</gom:speed></extensions></trkpt>
   <trkpt lat="59.0679642812" lon="29.9768929579"><ele>94.528</ele><time>2026-04-20T18:06:49.128Z</time><hdop>3.0</hdop><vdop>2.5</vdop><extensions><gom:speed>0.771</gom:speed></extensions></trkpt>
   <trkpt lat="59.0686788803" lon="29.9766475357"><ele>61.788</ele><time>2026-04-20T18:11:09.129Z</time><hdop>3.0</hdop><vdop>4.125</vdop><extensions><gom:speed>0.278</gom:speed></extensions></trkpt>
   <trkpt lat="59.0693970837" lon="29.976542762"><ele>95.092</ele><time>2026-04-20T18:12:08.813Z</time><hdop>4.062</hdop><vdop>2.5</vdop><extensions><gom:speed>0.893</gom:speed></extensions></trkpt>
   <trkpt lat="59.0700392632" lon="29.9771749251"><ele>82.322</ele><time>2026-04-20T18:14:50.130Z</time><hdop>3.0</hdop><vdop>2.5</vdop><extensions><gom:speed>0.494</gom:speed></extensions></trkpt>
   <trkpt lat="59.0707654713" lon="29.9771512881"><ele>85.683</ele><time>2026-04-20T18:16:29.703Z</time><hdop>3.0</hdop><vdop>2.75</vdop><extensions><gom:speed>0.749</gom:speed></extensions></trkpt>
   <trkpt lat="59.0714860635" lon="29.9770231288"><ele>90.1</ele><time>2026-04-20T18:18:25.132Z</time><hdop>3.875</hdop><vdop>5.937</vdop><extensions><gom:speed>1.033</gom:speed></extensions></trkpt>
   <trkpt lat="59.0721900595" lon="29.9767238949"><ele>80.044</ele><time>2026-04-20T18:22:33.878Z</time><hdop>3.0</hdop><vdop>5.25</vdop><extensions><gom:speed>0.767</gom:speed></extensions></trkpt>
   <trkpt lat="59.0728279643" lon="29.9773762584"><ele>63.68</ele><time>2026-04-20T18:29:40.972Z</time><hdop>3.0</hdop><vdop>5.125</vdop><extensions><gom:speed>0.578</gom:speed></extensions></trkpt>
   <trkpt lat="59.0732151663" lon="29.9785643932"><ele>91.197</ele><time>2026-04-20T18:33:43.134Z</time><hdop>3.0</hdop><vdop>3.625</vdop><extensions><gom:speed>0.805</gom:speed></extensions></trkpt>
   <trkpt lat="59.0725970848" lon="29.9778484948"><ele>103.062</ele><time>2026-04-20T18:43:13.137Z</time><hdop>3.0</hdop><vdop>2.5</vdop><extensions><gom:speed>0.228</gom:speed></extensions></trkpt>
   <trkpt lat="59.0732411921" lon="29.9785050493"><ele>108.718</ele><time>2026-04-20T18:50:45.625Z</time><hdop>3.0</hdop><vdop>2.5</vdop><extensions><gom:speed>0.803</gom:speed></extensions></trkpt>
   <trkpt lat="59.0729355879" lon="29.9797731474"><ele>105.743</ele><time>2026-04-20T18:53:06.140Z</time><hdop>4.562</hdop><vdop>2.5</vdop><extensions><gom:speed>0.751</gom:speed></extensions></trkpt>
   <trkpt lat="59.072447384" lon="29.9808085639"><ele>109.014</ele><time>2026-04-20T18:57:27.705Z</time><hdop>3.0</hdop><vdop>2.5</vdop><extensions><gom:speed>0.862</gom:speed></extensions></trkpt>
   <trkpt lat="59.0717224751" lon="29.9808216397"><ele>108.7</ele><time>2026-04-20T19:04:32.143Z</time><hdop>3.0</hdop><vdop>2.5</vdop><extensions><gom:speed>0.582</gom:speed></extensions></trkpt>
   <trkpt lat="59.0710222928" lon="29.981148031"><ele>107.85</ele><time>2026-04-20T19:06:34.745Z</time><hdop>3.25</hdop><vdop>2.5</vdop><extensions><gom:speed>0.702</gom:speed></extensions></trkpt>
   <trkpt lat="59.0703295704" lon="29.9815397174"><ele>103.227</ele><time>2026-04-20T19:08:09.133Z</time><hdop>3.0</hdop><vdop>2.5</vdop><extensions><gom:speed>0.922</gom:speed></extensions></trkpt>
   <trkpt lat="59.0696307711" lon="29.9818996363"><ele>106.162</ele><time>2026-04-20T19:10:26.978Z</time><hdop>3.0</hdop><vdop>2.5</vdop><extensions><gom:speed>1.009</gom:speed></extensions></trkpt>
   <trkpt lat="59.0689268589" lon="29.982206833"><ele>102.59</ele><time>2026-04-20T19:12:01.145Z</time><hdop>3.0</hdop><vdop>2.5</vdop><extensions><gom:speed>0.812</gom:speed></extensions></trkpt>
   <trkpt lat="59.0682275986" lon="29.9825814203"><ele>105.21</ele><time>2026-04-20T19:13:49.485Z</time><hdop>3.062</hdop><vdop>2.5</vdop><extensions><gom:speed>0.993</gom:speed></extensions></trkpt>
   <trkpt lat="59.0675200822" lon="29.9828456179"><ele>104.03</ele><time>2026-04-20T19:16:04.919Z</time><hdop>3.0</hdop><vdop>2.5</vdop><extensions><gom:speed>0.901</gom:speed></extensions></trkpt>
   <trkpt lat="59.0668909785" lon="29.9835335207"><ele>104.142</ele><time>2026-04-20T19:23:42.701Z</time><hdop>3.0</hdop><vdop>2.5</vdop><extensions><gom:speed>0.836</gom:speed></extensions></trkpt>
   <trkpt lat="59.0666310975" lon="29.9848498986"><ele>98.527</ele><time>2026-04-20T19:42:35.277Z</time><hdop>3.0</hdop><vdop>2.5</vdop><extensions><gom:speed>0.821</gom:speed></extensions></trkpt>
   <trkpt lat="59.0662454881" lon="29.9860301543"><ele>98.528</ele><time>2026-04-20T19:46:45.672Z</time><hdop>3.0</hdop><vdop>2.5</vdop><extensions><gom:speed>0.095</gom:speed></extensions></trkpt>
   <trkpt lat="59.0655309728" lon="29.9858800345"><ele>95.459</ele><time>2026-04-20T19:50:14.853Z</time><hdop>3.0</hdop><vdop>2.5</vdop><extensions><gom:speed>0.066</gom:speed></extensions></trkpt>
   <trkpt lat="59.0649917649" lon="29.9849538342"><ele>91.68</ele><time>2026-04-20T19:54:56.290Z</time><hdop>3.0</hdop><vdop>2.5</vdop><extensions><gom:speed>0.469</gom:speed></extensions></trkpt>
   <trkpt lat="59.0642790936" lon="29.984709837"><ele>88.437</ele><time>2026-04-20T19:57:13.147Z</time><hdop>3.0</hdop><vdop>2.5</vdop><extensions><gom:speed>0.47</gom:speed></extensions></trkpt>
   <trkpt lat="59.0635641592" lon="29.9845234234"><ele>92.3</ele><time>2026-04-20T20:00:54.158Z</time><hdop>3.0</hdop><vdop>2.812</vdop><extensions><gom:speed>0.311</gom:speed></extensions></trkpt>
   <trkpt lat="59.0628526613" lon="29.9842517659"><ele>95.732</ele><time>2026-04-20T20:04:28.321Z</time><hdop>3.0</hdop><vdop>3.312</vdop><extensions><gom:speed>0.669</gom:speed></extensions></trkpt>
   <trkpt lat="59.0621423788" lon="29.9840281368"><ele>94.39</ele><time>2026-04-20T20:08:38.276Z</time><hdop>3.0</hdop><vdop>2.562</vdop><extensions><gom:speed>0.146</gom:speed></extensions></trkpt>
   <trkpt lat="59.0614346948" lon="29.9837659508"><ele>96.218</ele><time>2026-04-20T20:10:58.308Z</time><hdop>3.062</hdop><vdop>2.5</vdop><extensions><gom:speed>0.572</gom:speed></extensions></trkpt>
   <trkpt lat="59.0607246637" lon="29.9835125659"><ele>97.913</ele><time>2026-04-20T20:14:53.484Z</time><hdop>3.125</hdop><vdop>2.5</vdop><extensions><gom:speed>0.739</gom:speed></extensions></trkpt>
   <trkpt lat="59.0600177759" lon="29.9832566664"><ele>98.414</ele><time>2026-04-20T20:19:09.229Z</time><hdop>3.0</hdop><vdop>2.5</vdop><extensions><gom:speed>0.304</gom:speed></extensions></trkpt>
   <trkpt lat="59.0593070744" lon="29.9830300197"><ele>100.024</ele><time>2026-04-20T20:21:56.164Z</time><hdop>3.062</hdop><vdop>2.5</vdop><extensions><gom:speed>0.168</gom:speed></extensions></trkpt>
   <trkpt lat="59.0585931877" lon="29.9828329612"><ele>100.785</ele><time>2026-04-20T20:24:30.863Z</time><hdop>3.0</hdop><vdop>2.5</vdop><extensions><gom:speed>0.577</gom:speed></extensions></trkpt>
   <trkpt lat="59.0578902813" lon="29.9825362418"><ele>97.222</ele><time>2026-04-20T20:27:50.969Z</time><hdop>3.0</hdop><vdop>2.5</vdop><extensions><gom:speed>0.198</gom:speed></extensions></trkpt>
   <trkpt lat="59.0571859919" lon="29.982242037"><ele>95.94</ele><time>2026-04-20T20:31:03.172Z</time><hdop>3.0</hdop><vdop>2.5</vdop><extensions><gom:speed>0.289</gom:speed></extensions></trkpt>
   <trkpt lat="59.0564726919" lon="29.9820499238"><ele>94.558</ele><time>2026-04-20T20:33:46.172Z</time><hdop>3.75</hdop><vdop>2.5</vdop><extensions><gom:speed>0.879</gom:speed></extensions></trkpt>
   <trkpt lat="59.0560190633" lon="29.9809643835"><ele>94.979</ele><time>2026-04-20T20:36:26.776Z</time><hdop>3.0</hdop><vdop>2.687</vdop><extensions><gom:speed>0.869</gom:speed></extensions></trkpt>
   <trkpt lat="59.0558744755" lon="29.9794677947"><ele>103.596</ele><time>2026-04-20T20:58:29.171Z</time><hdop>7.0</hdop><vdop>4.687</vdop><extensions><gom:speed>6.539</gom:speed></extensions></trkpt>
   <trkpt lat="59.0557938835" lon="29.9780690227"><ele>102.769</ele><time>2026-04-20T20:58:36.172Z</time><hdop>11.25</hdop><vdop>6.125</vdop><extensions><gom:speed>12.073</gom:speed></extensions></trkpt>
   <trkpt lat="59.0556635868" lon="29.9765931372"><ele>100.265</ele><time>2026-04-20T20:58:42.171Z</time><hdop>11.562</hdop><vdop>9.187</vdop><extensions><gom:speed>15.149</gom:speed></extensions></trkpt>
   <trkpt lat="59.0555387803" lon="29.9749518767"><ele>107.915</ele><time>2026-04-20T20:58:48.159Z</time><hdop>11.625</hdop><vdop>8.0</vdop><extensions><gom:speed>15.839</gom:speed></extensions></trkpt>
   <trkpt lat="59.0554471661" lon="29.9734146357"><ele>98.813</ele><time>2026-04-20T20:58:54.155Z</time><hdop>11.5</hdop><vdop>9.562</vdop><extensions><gom:speed>15.019</gom:speed></extensions></trkpt>
   <trkpt lat="59.0553478824" lon="29.9718974274"><ele>88.309</ele><time>2026-04-20T20:59:00.155Z</time><hdop>11.625</hdop><vdop>7.187</vdop><extensions><gom:speed>14.939</gom:speed></extensions></trkpt>
   <trkpt lat="59.0552385824" lon="29.970295981"><ele>84.533</ele><time>2026-04-20T20:59:06.171Z</time><hdop>11.812</hdop><vdop>7.625</vdop><extensions><gom:speed>15.279</gom:speed></extensions></trkpt>
   <trkpt lat="59.0551330961" lon="29.9687499389"><ele>83.756</ele><time>2026-04-20T20:59:12.171Z</time><hdop>11.75</hdop><vdop>6.0</vdop><extensions><gom:speed>14.539</gom:speed></extensions></trkpt>
   <trkpt lat="59.0551524583" lon="29.9671362549"><ele>71.495</ele><time>2026-04-20T20:59:19.332Z</time><hdop>12.75</hdop><vdop>6.437</vdop><extensions><gom:speed>14.429</gom:speed></extensions></trkpt>
   <trkpt lat="59.054960387" lon="29.9657479603"><ele>66.668</ele><time>2026-04-20T20:59:24.192Z</time><hdop>12.5</hdop><vdop>5.687</vdop><extensions><gom:speed>16.739</gom:speed></extensions></trkpt>
   <trkpt lat="59.0548991991" lon="29.9643396329"><ele>61.892</ele><time>2026-04-20T20:59:29.331Z</time><hdop>13.25</hdop><vdop>6.062</vdop><extensions><gom:speed>15.929</gom:speed></extensions></trkpt>
   <trkpt lat="59.0550787814" lon="29.9628978618"><ele>73.449</ele><time>2026-04-20T20:59:37.193Z</time><hdop>14.0</hdop><vdop>8.312</vdop><extensions><gom:speed>7.119</gom:speed></extensions></trkpt>
   <trkpt lat="59.0547969818" lon="29.9642262258"><ele>106.838</ele><time>2026-04-20T20:59:52.330Z</time><hdop>14.75</hdop><vdop>9.75</vdop><extensions><gom:speed>14.959</gom:speed></extensions></trkpt>
   <trkpt lat="59.0549947947" lon="29.9657701724"><ele>118.358</ele><time>2026-04-20T20:59:58.187Z</time><hdop>14.25</hdop><vdop>9.687</vdop><extensions><gom:speed>14.429</gom:speed></extensions></trkpt>
   <trkpt lat="59.0549737981" lon="29.9673570343"><ele>111.422</ele><time>2026-04-20T21:00:05.186Z</time><hdop>13.187</hdop><vdop>8.375</vdop><extensions><gom:speed>12.189</gom:speed></extensions></trkpt>
   <trkpt lat="59.0550533842" lon="29.9688402959"><ele>111.49</ele><time>2026-04-20T21:00:11.189Z</time><hdop>12.125</hdop><vdop>7.312</vdop><extensions><gom:speed>14.559</gom:speed></extensions></trkpt>
   <trkpt lat="59.055178568" lon="29.9704325222"><ele>97.595</ele><time>2026-04-20T21:00:16.331Z</time><hdop>11.5</hdop><vdop>6.187</vdop><extensions><gom:speed>17.799</gom:speed></extensions></trkpt>
   <trkpt lat="59.0552868622" lon="29.972113429"><ele>92.922</ele><time>2026-04-20T21:00:21.331Z</time><hdop>11.062</hdop><vdop>5.437</vdop><extensions><gom:speed>19.679</gom:speed></extensions></trkpt>
   <trkpt lat="59.0554191705" lon="29.9735118658"><ele>91.8</ele><time>2026-04-20T21:00:25.190Z</time><hdop>10.75</hdop><vdop>5.125</vdop><extensions><gom:speed>20.439</gom:speed></extensions></trkpt>
   <trkpt lat="59.0555382773" lon="29.9749247194"><ele>93.777</ele><time>2026-04-20T21:00:29.331Z</time><hdop>10.625</hdop><vdop>4.875</vdop><extensions><gom:speed>20.779</gom:speed></extensions></trkpt>
   <trkpt lat="59.0556493795" lon="29.9764537461"><ele>91.821</ele><time>2026-04-20T21:00:33.187Z</time><hdop>10.625</hdop><vdop>5.312</vdop><extensions><gom:speed>21.729</gom:speed></extensions></trkpt>
   <trkpt lat="59.0557624932" lon="29.9779763189"><ele>90.903</ele><time>2026-04-20T21:00:37.305Z</time><hdop>10.875</hdop><vdop>6.375</vdop><extensions><gom:speed>22.279</gom:speed></extensions></trkpt>
   <trkpt lat="59.0559051951" lon="29.9794916831"><ele>93.168</ele><time>2026-04-20T21:00:41.187Z</time><hdop>11.187</hdop><vdop>5.75</vdop><extensions><gom:speed>21.829</gom:speed></extensions></trkpt>
   <trkpt lat="59.0560198596" lon="29.9809663952"><ele>91.55</ele><time>2026-04-20T21:00:45.331Z</time><hdop>10.937</hdop><vdop>4.875</vdop><extensions><gom:speed>21.589</gom:speed></extensions></trkpt>
   <trkpt lat="59.056120191" lon="29.9824373354"><ele>92.116</ele><time>2026-04-20T21:00:49.189Z</time><hdop>10.5</hdop><vdop>3.875</vdop><extensions><gom:speed>21.429</gom:speed></extensions></trkpt>
   <trkpt lat="59.0562186783" lon="29.9839104548"><ele>91.93</ele><time>2026-04-20T21:00:53.330Z</time><hdop>10.125</hdop><vdop>3.375</vdop><extensions><gom:speed>21.279</gom:speed></extensions></trkpt>
   <trkpt lat="59.0563308701" lon="29.9853862565"><ele>94.002</ele><time>2026-04-20T21:00:57.311Z</time><hdop>10.25</hdop><vdop>3.687</vdop><extensions><gom:speed>21.099</gom:speed></extensions></trkpt>
   <trkpt lat="59.0564622983" lon="29.9868315481"><ele>92.653</ele><time>2026-04-20T21:01:01.323Z</time><hdop>10.75</hdop><vdop>3.937</vdop><extensions><gom:speed>20.269</gom:speed></extensions></trkpt>
   <trkpt lat="59.0565869792" lon="29.9884949368"><ele>91.403</ele><time>2026-04-20T21:01:06.324Z</time><hdop>10.625</hdop><vdop>4.187</vdop><extensions><gom:speed>18.659</gom:speed></extensions></trkpt>
   <trkpt lat="59.0567058764" lon="29.9899490294"><ele>93.97</ele><time>2026-04-20T21:01:11.189Z</time><hdop>10.562</hdop><vdop>4.625</vdop><extensions><gom:speed>16.029</gom:speed></extensions></trkpt>
   <trkpt lat="59.0568126619" lon="29.9913601228"><ele>95.757</ele><time>2026-04-20T21:01:16.172Z</time><hdop>10.5</hdop><vdop>3.812</vdop><extensions><gom:speed>14.599</gom:speed></extensions></trkpt>
   <trkpt lat="59.0569600996" lon="29.9930155486"><ele>95.273</ele><time>2026-04-20T21:01:21.172Z</time><hdop>9.937</hdop><vdop>2.562</vdop><extensions><gom:speed>20.289</gom:speed></extensions></trkpt>
   <trkpt lat="59.0570758956" lon="29.9944120575"><ele>94.833</ele><time>2026-04-20T21:01:25.171Z</time><hdop>9.875</hdop><vdop>2.562</vdop><extensions><gom:speed>20.189</gom:speed></extensions></trkpt>
   <trkpt lat="59.0571816752" lon="29.9958019447"><ele>94.166</ele><time>2026-04-20T21:01:29.171Z</time><hdop>6.812</hdop><vdop>2.5</vdop><extensions><gom:speed>20.379</gom:speed></extensions></trkpt>
   <trkpt lat="59.0572819647" lon="29.997214463"><ele>94.156</ele><time>2026-04-20T21:01:33.172Z</time><hdop>3.75</hdop><vdop>2.5</vdop><extensions><gom:speed>20.159</gom:speed></extensions></trkpt>
   <trkpt lat="59.0573967967" lon="29.9986436613"><ele>94.268</ele><time>2026-04-20T21:01:37.172Z</time><hdop>3.75</hdop><vdop>2.5</vdop><extensions><gom:speed>20.689</gom:speed></extensions></trkpt>
   <trkpt lat="59.0575256685" lon="30.0001109973"><ele>94.167</ele><time>2026-04-20T21:01:41.172Z</time><hdop>3.75</hdop><vdop>2.5</vdop><extensions><gom:speed>21.369</gom:speed></extensions></trkpt>
   <trkpt lat="59.0576583959" lon="30.0016006291"><ele>94.612</ele><time>2026-04-20T21:01:46.172Z</time><hdop>3.75</hdop><vdop>2.5</vdop><extensions><gom:speed>13.979</gom:speed></extensions></trkpt>
   <trkpt lat="59.05779917" lon="30.0032385368"><ele>95.377</ele><time>2026-04-20T21:01:52.172Z</time><hdop>3.75</hdop><vdop>2.5</vdop><extensions><gom:speed>17.669</gom:speed></extensions></trkpt>
   <trkpt lat="59.0579162652" lon="30.0048676435"><ele>95.68</ele><time>2026-04-20T21:01:57.172Z</time><hdop>3.75</hdop><vdop>2.5</vdop><extensions><gom:speed>19.509</gom:speed></extensions></trkpt>
   <trkpt lat="59.0580573745" lon="30.0065245782"><ele>94.197</ele><time>2026-04-20T21:02:02.171Z</time><hdop>3.75</hdop><vdop>2.5</vdop><extensions><gom:speed>17.939</gom:speed></extensions></trkpt>
   <trkpt lat="59.0576575996" lon="30.0077394512"><ele>93.2</ele><time>2026-04-20T21:02:14.172Z</time><hdop>3.75</hdop><vdop>2.5</vdop><extensions><gom:speed>11.979</gom:speed></extensions></trkpt>
   <trkpt lat="59.0568087643" lon="30.0080016371"><ele>92.835</ele><time>2026-04-20T21:02:20.171Z</time><hdop>3.75</hdop><vdop>2.5</vdop><extensions><gom:speed>18.439</gom:speed></extensions></trkpt>
   <trkpt lat="59.0560771918" lon="30.0082322233"><ele>92.391</ele><time>2026-04-20T21:02:24.171Z</time><hdop>3.75</hdop><vdop>2.5</vdop><extensions><gom:speed>21.189</gom:speed></extensions></trkpt>
   <trkpt lat="59.0552970881" lon="30.0085201417"><ele>92.654</ele><time>2026-04-20T21:02:28.172Z</time><hdop>3.75</hdop><vdop>2.5</vdop><extensions><gom:speed>22.009</gom:speed></extensions></trkpt>
   <trkpt lat="59.0544946885" lon="30.0087684975"><ele>91.199</ele><time>2026-04-20T21:02:32.171Z</time><hdop>3.75</hdop><vdop>2.5</vdop><extensions><gom:speed>23.329</gom:speed></extensions></trkpt>
   <trkpt lat="59.0536417879" lon="30.0090560806"><ele>90.295</ele><time>2026-04-20T21:02:36.171Z</time><hdop>3.75</hdop><vdop>2.5</vdop><extensions><gom:speed>24.089</gom:speed></extensions></trkpt>
   <trkpt lat="59.0528106803" lon="30.0093484413"><ele>91.12</ele><time>2026-04-20T21:02:40.172Z</time><hdop>3.75</hdop><vdop>2.5</vdop><extensions><gom:speed>22.899</gom:speed></extensions></trkpt>
   <trkpt lat="59.0520459993" lon="30.0095998984"><ele>93.58</ele><time>2026-04-20T21:02:44.172Z</time><hdop>3.75</hdop><vdop>2.5</vdop><extensions><gom:speed>21.129</gom:speed></extensions></trkpt>
   <trkpt lat="59.051316187" lon="30.0098485895"><ele>94.128</ele><time>2026-04-20T21:02:48.172Z</time><hdop>3.75</hdop><vdop>2.5</vdop><extensions><gom:speed>20.189</gom:speed></extensions></trkpt>
   <trkpt lat="59.0504613586" lon="30.0101245217"><ele>94.185</ele><time>2026-04-20T21:02:53.172Z</time><hdop>3.75</hdop><vdop>2.5</vdop><extensions><gom:speed>18.979</gom:speed></extensions></trkpt>
   <trkpt lat="59.0495788699" lon="30.0104181398"><ele>95.315</ele><time>2026-04-20T21:02:58.172Z</time><hdop>3.75</hdop><vdop>2.5</vdop><extensions><gom:speed>20.289</gom:speed></extensions></trkpt>
   <trkpt lat="59.0488317909" lon="30.01065518"><ele>95.815</ele><time>2026-04-20T21:03:02.171Z</time><hdop>3.75</hdop><vdop>2.5</vdop><extensions><gom:speed>21.539</gom:speed></extensions></trkpt>
   <trkpt lat="59.0480402878" lon="30.0109055475"><ele>95.847</ele><time>2026-04-20T21:03:06.172Z</time><hdop>3.75</hdop><vdop>2.5</vdop><extensions><gom:speed>22.879</gom:speed></extensions></trkpt>
   <trkpt lat="59.0472208729" lon="30.0111818988"><ele>95.197</ele><time>2026-04-20T21:03:10.172Z</time><hdop>3.75</hdop><vdop>2.5</vdop><extensions><gom:speed>23.219</gom:speed></extensions></trkpt>
   <trkpt lat="59.0464377936" lon="30.011434697"><ele>94.731</ele><time>2026-04-20T21:03:14.171Z</time><hdop>3.75</hdop><vdop>2.5</vdop><extensions><gom:speed>21.919</gom:speed></extensions></trkpt>
   <trkpt lat="59.0456789799" lon="30.0116826337"><ele>94.602</ele><time>2026-04-20T21:03:18.172Z</time><hdop>3.75</hdop><vdop>2.5</vdop><extensions><gom:speed>21.139</gom:speed></extensions></trkpt>
   <trkpt lat="59.0449551607" lon="30.0119209312"><ele>94.673</ele><time>2026-04-20T21:03:22.172Z</time><hdop>3.75</hdop><vdop>2.5</vdop><extensions><gom:speed>18.839</gom:speed></extensions></trkpt>
   <trkpt lat="59.0441693991" lon="30.0121957738"><ele>94.338</ele><time>2026-04-20T21:03:27.171Z</time><hdop>3.75</hdop><vdop>2.5</vdop><extensions><gom:speed>18.249</gom:speed></extensions></trkpt>
   <trkpt lat="59.0433146965" lon="30.0124532659"><ele>94.037</ele><time>2026-04-20T21:03:32.172Z</time><hdop>3.75</hdop><vdop>2.5</vdop><extensions><gom:speed>19.699</gom:speed></extensions></trkpt>
   <trkpt lat="59.0425850937" lon="30.0126874563"><ele>92.515</ele><time>2026-04-20T21:03:36.172Z</time><hdop>3.75</hdop><vdop>2.5</vdop><extensions><gom:speed>20.549</gom:speed></extensions></trkpt>
   <trkpt lat="59.0418308901" lon="30.0129502289"><ele>92.413</ele><time>2026-04-20T21:03:40.171Z</time><hdop>3.812</hdop><vdop>2.5</vdop><extensions><gom:speed>20.479</gom:speed></extensions></trkpt>
   <trkpt lat="59.0410967611" lon="30.0132074696"><ele>91.716</ele><time>2026-04-20T21:03:45.171Z</time><hdop>3.75</hdop><vdop>2.5</vdop><extensions><gom:speed>13.079</gom:speed></extensions></trkpt>
   <trkpt lat="59.0404385721" lon="30.0125761446"><ele>92.51</ele><time>2026-04-20T21:03:55.172Z</time><hdop>3.75</hdop><vdop>2.5</vdop><extensions><gom:speed>13.359</gom:speed></extensions></trkpt>
   <trkpt lat="59.0399706943" lon="30.0114122335"><ele>93.457</ele><time>2026-04-20T21:04:00.171Z</time><hdop>3.75</hdop><vdop>2.5</vdop><extensions><gom:speed>18.859</gom:speed></extensions></trkpt>
   <trkpt lat="59.0394719711" lon="30.0101040699"><ele>94.844</ele><time>2026-04-20T21:04:05.172Z</time><hdop>3.75</hdop><vdop>2.5</vdop><extensions><gom:speed>18.369</gom:speed></extensions></trkpt>
   <trkpt lat="59.0391832983" lon="30.0085159507"><ele>94.652</ele><time>2026-04-20T21:04:10.172Z</time><hdop>3.75</hdop><vdop>2.625</vdop><extensions><gom:speed>20.779</gom:speed></extensions></trkpt>
   <trkpt lat="59.0389826775" lon="30.007144839"><ele>94.427</ele><time>2026-04-20T21:04:14.172Z</time><hdop>3.75</hdop><vdop>2.5</vdop><extensions><gom:speed>19.659</gom:speed></extensions></trkpt>
   <trkpt lat="59.0389742956" lon="30.0054594897"><ele>94.687</ele><time>2026-04-20T21:04:19.171Z</time><hdop>3.75</hdop><vdop>2.5</vdop><extensions><gom:speed>19.899</gom:speed></extensions></trkpt>
   <trkpt lat="59.0391468789" lon="30.0039928243"><ele>93.579</ele><time>2026-04-20T21:04:23.171Z</time><hdop>3.75</hdop><vdop>2.5</vdop><extensions><gom:speed>22.299</gom:speed></extensions></trkpt>
   <trkpt lat="59.0393333763" lon="30.0024459441"><ele>93.73</ele><time>2026-04-20T21:04:27.172Z</time><hdop>3.75</hdop><vdop>2.5</vdop><extensions><gom:speed>22.669</gom:speed></extensions></trkpt>
   <trkpt lat="59.0395151798" lon="30.0010297377"><ele>93.882</ele><time>2026-04-20T21:04:31.172Z</time><hdop>3.75</hdop><vdop>2.5</vdop><extensions><gom:speed>20.829</gom:speed></extensions></trkpt>
   <trkpt lat="59.0396879727" lon="29.9995384295"><ele>94.166</ele><time>2026-04-20T21:04:35.171Z</time><hdop>3.75</hdop><vdop>2.5</vdop><extensions><gom:speed>22.369</gom:speed></extensions></trkpt>
   <trkpt lat="59.039851797" lon="29.9980300222"><ele>94.67</ele><time>2026-04-20T21:04:39.171Z</time><hdop>3.75</hdop><vdop>2.5</vdop><extensions><gom:speed>21.689</gom:speed></extensions></trkpt>
   <trkpt lat="59.0397920759" lon="29.9963420745"><ele>94.032</ele><time>2026-04-20T21:04:44.172Z</time><hdop>3.75</hdop><vdop>2.5</vdop><extensions><gom:speed>18.629</gom:speed></extensions></trkpt>
   <trkpt lat="59.0392681651" lon="29.9950332404"><ele>93.46</ele><time>2026-04-20T21:04:49.172Z</time><hdop>3.75</hdop><vdop>2.5</vdop><extensions><gom:speed>19.259</gom:speed></extensions></trkpt>
   <trkpt lat="59.0388792867" lon="29.9938049563"><ele>92.95</ele><time>2026-04-20T21:04:53.171Z</time><hdop>3.75</hdop><vdop>2.5</vdop><extensions><gom:speed>21.559</gom:speed></extensions></trkpt>
   <trkpt lat="59.0384894863" lon="29.9923904263"><ele>92.445</ele><time>2026-04-20T21:04:57.172Z</time><hdop>3.75</hdop><vdop>2.5</vdop><extensions><gom:speed>23.899</gom:speed></extensions></trkpt>
   <trkpt lat="59.0381144799" lon="29.9908595555"><ele>92.857</ele><time>2026-04-20T21:05:01.171Z</time><hdop>3.75</hdop><vdop>2.5</vdop><extensions><gom:speed>24.719</gom:speed></extensions></trkpt>
   <trkpt lat="59.037647566" lon="29.9893683311"><ele>92.55</ele><time>2026-04-20T21:05:05.172Z</time><hdop>3.75</hdop><vdop>2.5</vdop><extensions><gom:speed>25.459</gom:speed></extensions></trkpt>
   <trkpt lat="59.0372079771" lon="29.9879277334"><ele>92.712</ele><time>2026-04-20T21:05:09.172Z</time><hdop>3.75</hdop><vdop>2.5</vdop><extensions><gom:speed>22.969</gom:speed></extensions></trkpt>
   <trkpt lat="59.0369506946" lon="29.9864670191"><ele>92.659</ele><time>2026-04-20T21:05:13.171Z</time><hdop>3.75</hdop><vdop>2.5</vdop><extensions><gom:speed>21.809</gom:speed></extensions></trkpt>
   <trkpt lat="59.0369170832" lon="29.984729283"><ele>92.609</ele><time>2026-04-20T21:05:18.172Z</time><hdop>3.75</hdop><vdop>2.5</vdop><extensions><gom:speed>19.609</gom:speed></extensions></trkpt>
   <trkpt lat="59.0366733793" lon="29.9833422456"><ele>93.345</ele><time>2026-04-20T21:05:23.171Z</time><hdop>3.75</hdop><vdop>2.5</vdop><extensions><gom:speed>17.119</gom:speed></extensions></trkpt>
   <trkpt lat="59.036118665" lon="29.9819873948"><ele>93.309</ele><time>2026-04-20T21:05:28.172Z</time><hdop>3.75</hdop><vdop>2.5</vdop><extensions><gom:speed>21.069</gom:speed></extensions></trkpt>
   <trkpt lat="59.0355968915" lon="29.9810040299"><ele>93.114</ele><time>2026-04-20T21:05:32.171Z</time><hdop>3.75</hdop><vdop>2.5</vdop><extensions><gom:speed>19.159</gom:speed></extensions></trkpt>
   <trkpt lat="59.0353416625" lon="29.979395878"><ele>93.773</ele><time>2026-04-20T21:05:38.171Z</time><hdop>3.75</hdop><vdop>2.5</vdop><extensions><gom:speed>18.249</gom:speed></extensions></trkpt>
   <trkpt lat="59.035120967" lon="29.9778977804"><ele>93.947</ele><time>2026-04-20T21:05:43.171Z</time><hdop>3.75</hdop><vdop>2.5</vdop><extensions><gom:speed>18.359</gom:speed></extensions></trkpt>
   <trkpt lat="59.0345733773" lon="29.976561286"><ele>94.583</ele><time>2026-04-20T21:05:48.171Z</time><hdop>3.75</hdop><vdop>2.5</vdop><extensions><gom:speed>19.609</gom:speed></extensions></trkpt>
  </trkseg>
 </trk>
</gpx>